createdAt,value
2024-02-20T00:00:38.335Z,4.88
2024-02-20T00:03:04.938Z,4.43
2024-02-20T00:05:32.023Z,4.88
2024-02-20T00:08:03.643Z,3.88
2024-02-20T00:10:33.740Z,5.13
2024-02-20T00:13:00.373Z,5.10
2024-02-20T00:15:27.079Z,4.85
2024-02-20T00:17:53.760Z,4.38
2024-02-20T00:20:20.349Z,4.68
2024-02-20T00:22:46.841Z,6.70
2024-02-20T00:25:13.643Z,6.53
2024-02-20T00:27:40.685Z,4.95
2024-02-20T00:30:07.665Z,4.38
2024-02-20T00:32:34.116Z,3.35
2024-02-20T00:35:01.012Z,4.50
2024-02-20T00:37:28.301Z,4.65
2024-02-20T00:39:55.849Z,4.97
2024-02-20T00:42:24.690Z,4.50
2024-02-20T00:44:53.413Z,5.30
2024-02-20T00:47:20.169Z,4.07
2024-02-20T00:49:46.853Z,4.60
2024-02-20T00:52:13.407Z,5.07
2024-02-20T00:54:42.463Z,5.35
2024-02-20T00:57:11.170Z,3.78
2024-02-20T00:59:38.274Z,5.28
2024-02-20T01:02:05.545Z,5.30
2024-02-20T01:04:32.254Z,5.18
2024-02-20T01:06:58.753Z,4.80
2024-02-20T01:09:25.228Z,5.63
2024-02-20T01:11:51.730Z,4.82
2024-02-20T01:14:18.259Z,4.20
2024-02-20T01:16:44.777Z,6.10
2024-02-20T01:19:11.442Z,4.72
2024-02-20T01:21:37.946Z,4.43
2024-02-20T01:24:04.477Z,4.55
2024-02-20T01:26:32.305Z,4.88
2024-02-20T01:28:58.919Z,4.97
2024-02-20T01:31:26.278Z,3.15
2024-02-20T01:33:52.894Z,5.80
2024-02-20T01:36:20.494Z,3.75
2024-02-20T01:38:47.690Z,5.63
2024-02-20T01:41:14.148Z,4.70
2024-02-20T01:43:40.891Z,4.35
2024-02-20T01:46:08.497Z,5.10
2024-02-20T01:48:35.285Z,4.38
2024-02-20T01:51:02.359Z,4.95
2024-02-20T01:53:29.409Z,4.45
2024-02-20T01:55:57.111Z,4.05
2024-02-20T01:58:23.640Z,4.57
2024-02-20T02:00:50.364Z,5.43
2024-02-20T02:03:17.758Z,3.65
2024-02-20T02:05:44.450Z,4.03
2024-02-20T02:08:15.896Z,3.97
2024-02-20T02:10:42.903Z,4.82
2024-02-20T02:13:09.525Z,4.47
2024-02-20T02:15:36.062Z,3.85
2024-02-20T02:18:02.703Z,4.65
2024-02-20T02:20:29.284Z,4.47
2024-02-20T02:22:55.746Z,4.03
2024-02-20T02:25:22.294Z,4.10
2024-02-20T02:27:48.758Z,3.40
2024-02-20T02:30:16.751Z,3.90
2024-02-20T02:32:43.982Z,3.40
2024-02-20T02:35:10.914Z,7.65
2024-02-20T02:37:37.590Z,3.72
2024-02-20T02:40:07.294Z,4.30
2024-02-20T02:42:33.888Z,5.35
2024-02-20T02:45:00.282Z,4.05
2024-02-20T02:47:26.705Z,4.40
2024-02-20T02:49:53.360Z,4.20
2024-02-20T02:52:21.061Z,5.30
2024-02-20T02:54:47.620Z,5.25
2024-02-20T02:57:14.390Z,3.78
2024-02-20T02:59:40.808Z,4.90
2024-02-20T03:02:09.470Z,5.15
2024-02-20T03:04:36.209Z,5.43
2024-02-20T03:07:02.855Z,4.47
2024-02-20T03:09:29.391Z,3.58
2024-02-20T03:11:55.840Z,4.80
2024-02-20T03:14:23.364Z,3.65
2024-02-20T03:16:50.737Z,4.30
2024-02-20T03:19:18.188Z,3.88
2024-02-20T03:21:44.844Z,4.95
2024-02-20T03:24:11.329Z,4.43
2024-02-20T03:26:40.216Z,5.10
2024-02-20T03:29:08.382Z,4.80
2024-02-20T03:31:35.308Z,4.95
2024-02-20T03:34:03.125Z,5.22
2024-02-20T03:36:29.954Z,4.45
2024-02-20T03:38:56.343Z,4.95
2024-02-20T03:41:22.754Z,3.25
2024-02-20T03:43:49.333Z,5.53
2024-02-20T03:46:15.846Z,4.72
2024-02-20T03:48:42.533Z,3.55
2024-02-20T03:51:08.983Z,4.07
2024-02-20T03:53:35.494Z,5.55
2024-02-20T03:56:02.881Z,4.03
2024-02-20T03:58:29.407Z,3.88
2024-02-20T04:00:56.021Z,4.13
2024-02-20T04:03:22.680Z,4.45
2024-02-20T04:05:49.438Z,2.97
2024-02-20T04:08:16.732Z,4.32
2024-02-20T04:10:43.578Z,3.97
2024-02-20T04:13:10.617Z,3.47
2024-02-20T04:15:38.535Z,5.15
2024-02-20T04:18:05.262Z,5.10
2024-02-20T04:20:31.765Z,4.03
2024-02-20T04:22:58.401Z,3.90
2024-02-20T04:25:25.034Z,5.75
2024-02-20T04:27:51.778Z,6.05
2024-02-20T04:30:18.403Z,4.45
2024-02-20T04:32:44.971Z,5.43
2024-02-20T04:35:11.979Z,3.90
2024-02-20T04:37:38.971Z,5.20
2024-02-20T04:40:08.479Z,3.50
2024-02-20T04:42:35.026Z,5.15
2024-02-20T04:45:02.069Z,4.90
2024-02-20T04:47:31.554Z,3.70
2024-02-20T04:49:58.630Z,5.35
2024-02-20T04:52:25.575Z,4.85
2024-02-20T04:54:52.477Z,5.78
2024-02-20T04:57:18.892Z,4.93
2024-02-20T04:59:48.786Z,3.45
2024-02-20T05:02:15.979Z,3.50
2024-02-20T05:04:42.771Z,4.40
2024-02-20T05:07:09.893Z,4.40
2024-02-20T05:09:36.497Z,3.85
2024-02-20T05:12:03.199Z,4.72
2024-02-20T05:14:29.628Z,5.03
2024-02-20T05:16:57.178Z,3.95
2024-02-20T05:19:24.390Z,4.18
2024-02-20T05:21:52.223Z,4.10
2024-02-20T05:24:19.029Z,5.13
2024-02-20T05:26:45.421Z,4.85
2024-02-20T05:29:11.957Z,5.30
2024-02-20T05:31:38.542Z,6.32
2024-02-20T05:34:05.313Z,4.25
2024-02-20T05:36:32.968Z,5.57
2024-02-20T05:39:02.990Z,3.83
2024-02-20T05:41:30.450Z,4.30
2024-02-20T05:44:00.694Z,3.67
2024-02-20T05:46:28.042Z,3.95
2024-02-20T05:48:55.473Z,6.03
2024-02-20T05:51:22.348Z,4.68
2024-02-20T05:53:48.707Z,4.97
2024-02-20T05:56:15.233Z,4.90
2024-02-20T05:58:42.805Z,4.97
2024-02-20T06:01:09.924Z,4.20
2024-02-20T06:03:36.907Z,5.95
2024-02-20T06:06:06.607Z,4.75
2024-02-20T06:08:33.059Z,5.22
2024-02-20T06:10:59.514Z,5.15
2024-02-20T06:13:26.088Z,5.03
2024-02-20T06:15:52.688Z,5.28
2024-02-20T06:18:20.312Z,4.70
2024-02-20T06:20:47.354Z,4.93
2024-02-20T06:23:13.812Z,3.90
2024-02-20T06:25:43.579Z,5.13
2024-02-20T06:28:10.648Z,4.45
2024-02-20T06:30:37.105Z,4.43
2024-02-20T06:33:03.642Z,3.92
2024-02-20T06:35:30.291Z,5.05
2024-02-20T06:37:56.763Z,5.15
2024-02-20T06:40:23.220Z,3.83
2024-02-20T06:42:49.639Z,4.38
2024-02-20T06:45:16.373Z,4.28
2024-02-20T06:47:43.777Z,4.05
2024-02-20T06:50:12.992Z,5.57
2024-02-20T06:52:44.620Z,5.35
2024-02-20T06:55:11.246Z,4.88
2024-02-20T06:57:40.653Z,5.38
2024-02-20T07:00:12.844Z,5.13
2024-02-20T07:02:42.959Z,5.25
2024-02-20T07:05:09.789Z,4.80
2024-02-20T07:07:36.466Z,5.13
2024-02-20T07:10:05.099Z,5.55
2024-02-20T07:12:31.626Z,5.60
2024-02-20T07:14:58.116Z,5.72
2024-02-20T07:17:25.681Z,4.60
2024-02-20T07:19:53.576Z,4.07
2024-02-20T07:22:20.104Z,5.97
2024-02-20T07:24:46.574Z,6.20
2024-02-20T07:27:13.006Z,5.55
2024-02-20T07:29:43.082Z,4.75
2024-02-20T07:32:12.170Z,4.38
2024-02-20T07:34:39.489Z,5.40
2024-02-20T07:37:06.255Z,5.75
2024-02-20T07:39:32.822Z,6.90
2024-02-20T07:41:59.582Z,5.90
2024-02-20T07:44:26.529Z,5.07
2024-02-20T07:46:53.648Z,5.50
2024-02-20T07:49:22.647Z,5.25
2024-02-20T07:51:49.257Z,4.78
2024-02-20T07:54:16.066Z,5.50
2024-02-20T07:56:43.367Z,5.93
2024-02-20T07:59:11.765Z,5.05
2024-02-20T08:01:38.621Z,4.85
2024-02-20T08:04:05.319Z,4.80
2024-02-20T08:06:33.205Z,5.00
2024-02-20T08:08:59.641Z,5.18
2024-02-20T08:11:26.112Z,5.18
2024-02-20T08:13:52.599Z,4.38
2024-02-20T08:16:19.535Z,6.30
2024-02-20T08:18:46.262Z,5.18
2024-02-20T08:21:14.284Z,6.25
2024-02-20T08:23:43.371Z,6.63
2024-02-20T08:26:10.206Z,4.60
2024-02-20T08:28:38.392Z,4.95
2024-02-20T08:31:07.642Z,5.80
2024-02-20T08:33:34.054Z,5.60
2024-02-20T08:36:00.472Z,5.97
2024-02-20T08:38:26.871Z,5.18
2024-02-20T08:40:53.305Z,5.55
2024-02-20T08:43:19.934Z,4.93
2024-02-20T08:45:46.476Z,5.07
2024-02-20T08:48:13.002Z,7.13
2024-02-20T08:50:39.489Z,4.72
2024-02-20T08:53:11.678Z,6.40
2024-02-20T08:55:39.617Z,6.47
2024-02-20T08:58:06.435Z,4.60
2024-02-20T09:00:33.114Z,5.15
2024-02-20T09:03:00.073Z,6.30
2024-02-20T09:05:26.693Z,5.63
2024-02-20T09:07:53.209Z,7.97
2024-02-20T09:10:19.869Z,5.07
2024-02-20T09:12:46.579Z,5.25
2024-02-20T09:15:15.716Z,5.65
2024-02-20T09:17:42.170Z,5.70
2024-02-20T09:20:11.159Z,5.25
2024-02-20T09:22:39.725Z,6.20
2024-02-20T09:25:07.536Z,5.30
2024-02-20T09:27:34.687Z,5.85
2024-02-20T09:30:01.909Z,5.47
2024-02-20T09:32:30.455Z,4.93
2024-02-20T09:34:56.920Z,5.30
2024-02-20T09:37:23.318Z,5.78
2024-02-20T09:39:49.874Z,4.55
2024-02-20T09:42:22.480Z,6.15
2024-02-20T09:44:51.410Z,5.30
2024-02-20T09:47:19.437Z,5.07
2024-02-20T09:49:47.400Z,5.05
2024-02-20T09:52:13.940Z,5.13
2024-02-20T09:54:41.830Z,5.70
2024-02-20T09:57:08.806Z,4.68
2024-02-20T09:59:35.218Z,4.90
2024-02-20T10:02:02.508Z,3.92
2024-02-20T10:04:33.418Z,4.90
2024-02-20T10:07:06.120Z,4.68
2024-02-20T10:11:59.089Z,4.78
2024-02-20T10:14:28.785Z,5.45
2024-02-20T10:16:58.967Z,5.57
2024-02-20T10:19:25.512Z,3.97
2024-02-20T10:21:52.130Z,3.75
2024-02-20T10:24:24.715Z,5.03
2024-02-20T10:26:54.476Z,4.40
2024-02-20T10:29:21.197Z,4.95
2024-02-20T10:31:47.634Z,5.60
2024-02-20T10:34:19.656Z,4.30
2024-02-20T10:36:46.063Z,4.68
2024-02-20T10:39:12.692Z,5.18
2024-02-20T10:41:40.110Z,4.88
2024-02-20T10:44:06.653Z,5.53
2024-02-20T10:46:38.485Z,5.20
2024-02-20T10:49:15.802Z,5.15
2024-02-20T10:51:42.928Z,3.90
2024-02-20T10:54:10.109Z,4.82
2024-02-20T10:56:36.796Z,4.88
2024-02-20T10:59:04.899Z,4.53
2024-02-20T11:01:31.506Z,5.30
2024-02-20T11:04:02.056Z,5.20
2024-02-20T11:06:32.163Z,4.90
2024-02-20T11:09:14.666Z,5.88
2024-02-20T11:11:41.871Z,5.20
2024-02-20T11:14:08.496Z,5.53
2024-02-20T11:16:35.804Z,4.53
2024-02-20T11:19:02.889Z,5.32
2024-02-20T11:21:30.627Z,4.35
2024-02-20T11:23:57.340Z,4.95
2024-02-20T11:26:28.444Z,5.43
2024-02-20T11:28:58.480Z,3.92
2024-02-20T11:31:26.304Z,4.82
2024-02-20T11:33:53.789Z,5.95
2024-02-20T11:36:20.245Z,4.63
2024-02-20T11:38:46.660Z,4.05
2024-02-20T11:41:14.245Z,5.20
2024-02-20T11:43:42.322Z,5.75
2024-02-20T11:46:08.856Z,4.07
2024-02-20T11:48:38.596Z,5.43
2024-02-20T11:51:05.306Z,4.57
2024-02-20T11:53:32.125Z,5.20
2024-02-20T11:55:59.298Z,5.22
2024-02-20T11:58:28.506Z,5.07
2024-02-20T12:01:02.752Z,4.00
2024-02-20T12:03:32.879Z,5.53
2024-02-20T12:06:03.815Z,5.20
2024-02-20T12:08:41.045Z,5.20
2024-02-20T12:11:08.498Z,6.10
2024-02-20T12:13:35.215Z,4.65
2024-02-20T12:16:01.760Z,5.70
2024-02-20T12:18:29.233Z,4.68
2024-02-20T12:21:11.144Z,4.35
2024-02-20T12:23:37.773Z,6.10
2024-02-20T12:26:11.059Z,5.47
2024-02-20T12:28:38.615Z,4.30
2024-02-20T12:31:09.587Z,6.18
2024-02-20T12:33:36.714Z,5.50
2024-02-20T12:36:06.636Z,4.95
2024-02-20T12:38:33.126Z,5.15
2024-02-20T12:40:59.601Z,5.15
2024-02-20T12:43:26.193Z,5.15
2024-02-20T12:45:52.703Z,5.63
2024-02-20T12:48:19.330Z,5.25
2024-02-20T12:50:45.881Z,5.63
2024-02-20T12:53:12.341Z,5.10
2024-02-20T12:55:38.963Z,4.78
2024-02-20T12:58:06.027Z,4.72
2024-02-20T13:00:32.788Z,6.53
2024-02-20T13:02:59.736Z,5.28
2024-02-20T13:05:26.971Z,3.63
2024-02-20T13:07:55.055Z,4.43
2024-02-20T13:10:21.495Z,3.47
2024-02-20T13:12:48.241Z,4.95
2024-02-20T13:15:14.755Z,3.78
2024-02-20T13:17:41.361Z,3.95
2024-02-20T13:20:08.160Z,3.35
2024-02-20T13:22:36.722Z,4.65
2024-02-20T13:25:03.519Z,4.03
2024-02-20T13:27:30.034Z,3.72
2024-02-20T13:29:56.406Z,4.45
2024-02-20T13:32:22.956Z,4.13
2024-02-20T13:34:49.541Z,3.97
2024-02-20T13:37:16.769Z,3.83
2024-02-20T13:39:43.130Z,3.95
2024-02-20T13:42:09.474Z,4.35
2024-02-20T13:44:35.866Z,4.07
2024-02-20T13:47:10.410Z,4.50
2024-02-20T13:49:41.281Z,4.50
2024-02-20T13:52:07.799Z,4.30
2024-02-20T13:54:34.903Z,3.85
2024-02-20T13:57:01.426Z,3.55
2024-02-20T13:59:27.924Z,4.68
2024-02-20T14:01:54.389Z,3.90
2024-02-20T14:04:22.007Z,4.80
2024-02-20T14:06:49.171Z,4.57
2024-02-20T14:09:15.550Z,4.63
2024-02-20T14:11:42.036Z,5.10
2024-02-20T14:14:08.625Z,4.60
2024-02-20T14:16:35.341Z,5.50
2024-02-20T14:19:01.913Z,4.50
2024-02-20T14:21:28.776Z,5.32
2024-02-20T14:23:55.455Z,5.75
2024-02-20T14:26:24.816Z,5.20
2024-02-20T14:28:52.350Z,5.20
2024-02-20T14:31:19.038Z,5.05
2024-02-20T14:33:46.570Z,5.22
2024-02-20T14:36:13.154Z,5.75
2024-02-20T14:38:39.632Z,5.15
2024-02-20T14:41:07.328Z,5.78
2024-02-20T14:43:33.856Z,5.18
2024-02-20T14:46:00.296Z,5.90
2024-02-20T14:48:27.076Z,6.03
2024-02-20T14:50:53.620Z,6.20
2024-02-20T14:53:20.580Z,5.25
2024-02-20T14:55:48.971Z,6.40
2024-02-20T14:58:16.277Z,6.63
2024-02-20T15:00:42.821Z,8.20
2024-02-20T15:03:09.259Z,7.47
2024-02-20T15:05:35.988Z,7.97
2024-02-20T15:08:02.679Z,7.97
2024-02-20T15:10:30.528Z,9.27
2024-02-20T15:12:56.955Z,9.43
2024-02-20T15:15:23.384Z,8.45
2024-02-20T15:17:49.861Z,9.60
2024-02-20T15:20:16.643Z,8.73
2024-02-20T15:22:43.305Z,9.07
2024-02-20T15:25:16.739Z,9.85
2024-02-20T15:27:47.631Z,9.13
2024-02-20T15:30:14.641Z,8.25
2024-02-20T15:32:43.770Z,6.20
2024-02-20T15:35:10.933Z,9.77
2024-02-20T15:37:39.123Z,10.07
2024-02-20T15:40:07.057Z,8.10
2024-02-20T15:42:34.180Z,8.70
2024-02-20T15:45:00.564Z,9.73
2024-02-20T15:47:27.572Z,8.50
2024-02-20T15:49:54.191Z,8.40
2024-02-20T15:52:22.184Z,8.45
2024-02-20T15:54:50.325Z,7.55
2024-02-20T15:57:17.381Z,7.72
2024-02-20T15:59:43.795Z,7.22
2024-02-20T16:02:10.972Z,7.13
2024-02-20T16:04:38.375Z,7.28
2024-02-20T16:07:05.219Z,7.35
2024-02-20T16:09:32.397Z,6.75
2024-02-20T16:11:58.935Z,6.97
2024-02-20T16:14:26.492Z,6.88
2024-02-20T16:16:53.450Z,7.07
2024-02-20T16:19:20.317Z,5.40
2024-02-20T16:21:46.940Z,7.03
2024-02-20T16:24:13.485Z,5.75
2024-02-20T16:26:40.280Z,5.57
2024-02-20T16:29:06.714Z,6.80
2024-02-20T16:31:33.309Z,5.53
2024-02-20T16:33:59.806Z,6.03
2024-02-20T16:36:26.277Z,5.53
2024-02-20T16:38:53.023Z,6.35
2024-02-20T16:41:24.336Z,5.68
2024-02-20T16:43:52.362Z,6.75
2024-02-20T16:46:19.072Z,7.32
2024-02-20T16:48:46.455Z,5.72
2024-02-20T16:51:13.003Z,6.68
2024-02-20T16:53:41.665Z,7.50
2024-02-20T16:56:08.243Z,7.20
2024-02-20T16:58:34.847Z,6.82
2024-02-20T17:01:01.451Z,8.15
2024-02-20T17:03:27.958Z,7.97
2024-02-20T17:05:54.856Z,7.82
2024-02-20T17:08:25.333Z,6.30
2024-02-20T17:10:52.014Z,8.43
2024-02-20T17:13:19.044Z,7.93
2024-02-20T17:15:45.520Z,7.78
2024-02-20T17:18:12.319Z,8.50
2024-02-20T17:20:38.820Z,8.07
2024-02-20T17:23:07.931Z,8.55
2024-02-20T17:25:34.479Z,7.85
2024-02-20T17:28:00.955Z,8.20
2024-02-20T17:30:27.564Z,7.43
2024-02-20T17:32:57.069Z,8.02
2024-02-20T17:35:25.629Z,7.20
2024-02-20T17:37:52.258Z,6.78
2024-02-20T17:40:20.908Z,8.80
2024-02-20T17:42:47.510Z,6.78
2024-02-20T17:45:17.746Z,6.10
2024-02-20T17:47:44.277Z,8.05
2024-02-20T17:50:13.521Z,7.82
2024-02-20T17:52:40.494Z,6.95
2024-02-20T17:55:07.390Z,5.60
2024-02-20T17:57:34.031Z,7.82
2024-02-20T18:00:00.470Z,7.07
2024-02-20T18:02:26.993Z,6.20
2024-02-20T18:04:53.878Z,6.47
2024-02-20T18:07:20.643Z,6.55
2024-02-20T18:09:48.203Z,5.72
2024-02-20T18:12:14.942Z,7.32
2024-02-20T18:14:41.535Z,7.13
2024-02-20T18:17:07.926Z,7.18
2024-02-20T18:19:34.400Z,7.90
2024-02-20T18:22:01.407Z,6.88
2024-02-20T18:24:27.891Z,7.18
2024-02-20T18:26:54.462Z,7.18
2024-02-20T18:29:21.452Z,5.45
2024-02-20T18:31:48.264Z,6.53
2024-02-20T18:34:14.804Z,7.25
2024-02-20T18:36:41.286Z,6.63
2024-02-20T18:39:10.397Z,6.03
2024-02-20T18:41:36.971Z,5.47
2024-02-20T18:44:03.515Z,5.72
2024-02-20T18:46:30.264Z,6.45
2024-02-20T18:48:57.139Z,5.45
2024-02-20T18:51:24.676Z,5.85
2024-02-20T18:53:52.510Z,5.80
2024-02-20T18:56:20.090Z,6.53
2024-02-20T18:58:46.497Z,7.30
2024-02-20T19:01:16.659Z,4.95
2024-02-20T19:03:45.207Z,5.95
2024-02-20T19:06:11.666Z,5.45
2024-02-20T19:08:44.479Z,8.77
2024-02-20T19:11:12.268Z,12.35
2024-02-20T19:13:41.858Z,6.45
2024-02-20T19:16:08.569Z,6.93
2024-02-20T19:18:35.153Z,5.35
2024-02-20T19:21:02.003Z,7.13
2024-02-20T19:23:28.604Z,5.00
2024-02-20T19:25:55.277Z,5.53
2024-02-20T19:28:21.968Z,6.47
2024-02-20T19:30:48.392Z,6.32
2024-02-20T19:33:15.031Z,6.45
2024-02-20T19:35:42.162Z,9.18
2024-02-20T19:38:10.065Z,7.18
2024-02-20T19:40:36.666Z,7.63
2024-02-20T19:43:06.176Z,7.30
2024-02-20T19:45:32.708Z,5.97
2024-02-20T19:47:59.368Z,6.88
2024-02-20T19:50:25.785Z,6.25
2024-02-20T19:52:52.306Z,6.20
2024-02-20T19:55:20.379Z,7.57
2024-02-20T19:57:46.981Z,6.10
2024-02-20T20:00:15.321Z,8.45
2024-02-20T20:02:41.793Z,5.90
2024-02-20T20:05:08.941Z,6.22
2024-02-20T20:07:35.668Z,9.40
2024-02-20T20:10:02.602Z,7.35
2024-02-20T20:12:29.061Z,7.55
2024-02-20T20:14:56.351Z,6.47
2024-02-20T20:17:25.403Z,6.90
2024-02-20T20:19:52.504Z,6.22
2024-02-20T20:22:19.096Z,7.65
2024-02-20T20:24:46.625Z,7.10
2024-02-20T20:27:14.281Z,6.13
2024-02-20T20:29:41.267Z,7.35
2024-02-20T20:32:08.542Z,6.43
2024-02-20T20:34:36.505Z,15.02
2024-02-20T20:37:03.289Z,7.35
2024-02-20T20:39:29.722Z,6.90
2024-02-20T20:41:57.241Z,8.43
2024-02-20T20:44:24.264Z,7.60
2024-02-20T20:46:50.982Z,5.70
2024-02-20T20:49:17.642Z,7.35
2024-02-20T20:51:44.632Z,6.43
2024-02-20T20:54:11.010Z,8.18
2024-02-20T20:56:37.436Z,5.93
2024-02-20T20:59:04.028Z,7.20
2024-02-20T21:01:32.696Z,14.23
2024-02-20T21:04:01.689Z,8.10
2024-02-20T21:06:31.683Z,6.70
2024-02-20T21:08:58.267Z,6.20
2024-02-20T21:11:25.088Z,7.28
2024-02-20T21:13:51.607Z,7.53
2024-02-20T21:16:18.549Z,7.72
2024-02-20T21:18:45.139Z,7.28
2024-02-20T21:21:11.635Z,7.32
2024-02-20T21:23:38.080Z,9.27
2024-02-20T21:26:09.031Z,9.73
2024-02-20T21:28:39.945Z,12.77
2024-02-20T21:31:06.578Z,7.53
2024-02-20T21:33:33.148Z,7.75
2024-02-20T21:36:05.081Z,7.32
2024-02-20T21:38:40.659Z,14.90
2024-02-20T21:41:08.012Z,7.20
2024-02-20T21:43:34.631Z,7.20
2024-02-20T21:46:01.111Z,7.28
2024-02-20T21:48:27.830Z,7.55
2024-02-20T21:50:57.299Z,8.40
2024-02-20T21:53:23.744Z,7.35
2024-02-20T21:55:50.299Z,6.78
2024-02-20T21:58:16.881Z,7.38
2024-02-20T22:00:43.426Z,7.25
2024-02-20T22:03:10.015Z,7.20
2024-02-20T22:05:37.896Z,7.18
2024-02-20T22:08:04.742Z,6.35
2024-02-20T22:10:31.890Z,7.15
2024-02-20T22:12:58.379Z,8.55
2024-02-20T22:15:24.935Z,5.97
2024-02-20T22:17:51.573Z,6.32
2024-02-20T22:20:18.256Z,6.25
2024-02-20T22:22:44.904Z,6.22
2024-02-20T22:25:11.456Z,5.80
2024-02-20T22:27:38.301Z,5.75
2024-02-20T22:30:04.958Z,6.72
2024-02-20T22:32:31.528Z,8.20
2024-02-20T22:34:58.165Z,6.35
2024-02-20T22:37:24.734Z,6.18
2024-02-20T22:39:51.346Z,5.22
2024-02-20T22:42:17.801Z,5.15
2024-02-20T22:44:45.512Z,3.60
2024-02-20T22:47:12.223Z,4.07
2024-02-20T22:49:38.857Z,4.18
2024-02-20T22:52:05.389Z,4.63
2024-02-20T22:54:31.920Z,4.35
2024-02-20T22:56:59.316Z,4.30
2024-02-20T22:59:26.349Z,3.75
2024-02-20T23:01:52.961Z,4.22
2024-02-20T23:04:19.635Z,3.22
2024-02-20T23:06:46.538Z,3.08
2024-02-20T23:09:13.077Z,4.18
2024-02-20T23:11:39.848Z,3.47
2024-02-20T23:14:06.442Z,3.22
2024-02-20T23:16:36.285Z,3.35
2024-02-20T23:19:02.897Z,4.22
2024-02-20T23:21:29.414Z,4.18
2024-02-20T23:23:55.892Z,3.55
2024-02-20T23:26:22.393Z,3.70
2024-02-20T23:28:49.070Z,3.50
2024-02-20T23:31:15.679Z,4.68
2024-02-20T23:33:42.234Z,3.08
2024-02-20T23:36:08.860Z,3.40
2024-02-20T23:38:35.685Z,3.67
2024-02-20T23:41:02.196Z,3.67
2024-02-20T23:43:28.759Z,3.47
2024-02-20T23:45:55.244Z,3.30
2024-02-20T23:48:21.908Z,3.35
2024-02-20T23:50:48.567Z,3.20
2024-02-20T23:53:15.362Z,3.33
2024-02-20T23:55:41.818Z,4.43
2024-02-20T23:58:08.436Z,3.83
